createdAt,value
2023-05-18T00:00:03.511Z,957.45
2023-05-18T00:15:05.508Z,957.28
2023-05-18T00:30:07.540Z,957.12
2023-05-18T00:45:09.501Z,957.11
2023-05-18T01:00:11.603Z,956.97
2023-05-18T01:15:13.709Z,956.99
2023-05-18T01:30:15.695Z,956.97
2023-05-18T01:45:17.841Z,956.89
2023-05-18T02:00:19.988Z,956.96
2023-05-18T02:15:21.976Z,957.09
2023-05-18T02:30:23.984Z,957.14
2023-05-18T02:45:26.057Z,957.46
2023-05-18T03:00:28.110Z,957.54
2023-05-18T03:15:30.347Z,957.53
2023-05-18T03:30:32.499Z,957.66
2023-05-18T03:45:34.539Z,957.72
2023-05-18T04:00:36.751Z,957.88
2023-05-18T04:15:38.715Z,957.99
2023-05-18T04:30:40.755Z,958.23
2023-05-18T04:45:42.772Z,958.58
2023-05-18T05:00:44.837Z,958.69
2023-05-18T05:15:46.869Z,958.9
2023-05-18T05:30:48.886Z,959.2
2023-05-18T05:45:50.920Z,959.41
2023-05-18T06:00:52.900Z,959.54
2023-05-18T06:15:54.871Z,959.66
2023-05-18T06:30:56.890Z,959.98
2023-05-18T06:45:58.948Z,960.21
2023-05-18T07:01:01.056Z,960.53
2023-05-18T07:16:03.096Z,960.59
2023-05-18T07:31:05.154Z,960.6
2023-05-18T07:46:07.183Z,960.8
2023-05-18T08:01:09.174Z,960.92
2023-05-18T08:16:12.506Z,960.95
2023-05-18T08:31:14.707Z,960.98
2023-05-18T08:46:16.770Z,961.19
2023-05-18T09:01:18.950Z,961.41
2023-05-18T09:16:21.111Z,961.73
2023-05-18T09:31:23.177Z,961.94
2023-05-18T09:46:25.294Z,962.04
2023-05-18T10:01:27.675Z,962.04
2023-05-18T10:16:29.820Z,962.04
2023-05-18T10:31:31.895Z,962.18
2023-05-18T10:46:34.139Z,962.27
2023-05-18T11:01:36.618Z,962.43
2023-05-18T11:16:38.640Z,962.6
2023-05-18T11:31:40.680Z,962.77
2023-05-18T11:46:42.707Z,962.92
2023-05-18T12:01:44.726Z,963.1
2023-05-18T12:16:46.838Z,963.29
2023-05-18T12:31:48.928Z,963.44
2023-05-18T12:46:51.012Z,963.55
2023-05-18T13:01:53.236Z,963.63
2023-05-18T13:16:55.400Z,963.83
2023-05-18T13:31:57.580Z,963.97
2023-05-18T13:46:59.580Z,964.1
2023-05-18T14:02:01.791Z,964.24
2023-05-18T14:17:03.933Z,964.32
2023-05-18T14:32:05.985Z,964.29
2023-05-18T14:47:08.039Z,964.43
2023-05-18T15:02:10.272Z,964.43
2023-05-18T15:17:12.384Z,964.48
2023-05-18T15:32:14.444Z,964.39
2023-05-18T15:47:16.657Z,964.4
2023-05-18T16:02:18.684Z,964.41
2023-05-18T16:17:20.701Z,964.29
2023-05-18T16:32:22.722Z,964.29
2023-05-18T16:47:24.733Z,964.18
2023-05-18T17:02:26.828Z,963.97
2023-05-18T17:17:28.941Z,963.91
2023-05-18T17:32:30.959Z,963.79
2023-05-18T17:47:33.012Z,963.63
2023-05-18T18:02:35.105Z,963.45
2023-05-18T18:17:37.173Z,963.23
2023-05-18T18:32:39.329Z,963.06
2023-05-18T18:47:41.352Z,962.9
2023-05-18T19:02:43.485Z,962.73
2023-05-18T19:17:45.539Z,962.65
2023-05-18T19:32:47.677Z,962.41
2023-05-18T19:47:49.911Z,962.23
2023-05-18T20:02:51.984Z,962.11
2023-05-18T20:17:54.092Z,961.95
2023-05-18T20:32:56.177Z,961.75
2023-05-18T20:47:58.278Z,961.52
2023-05-18T21:03:00.347Z,961.35
2023-05-18T21:18:02.578Z,961.25
2023-05-18T21:33:04.994Z,961.05
2023-05-18T21:48:07.225Z,960.93
2023-05-18T22:03:09.343Z,960.72
2023-05-18T22:18:11.583Z,960.65
2023-05-18T22:33:13.810Z,960.5
2023-05-18T22:48:15.909Z,960.44
2023-05-18T23:03:17.934Z,960.24
2023-05-18T23:18:19.982Z,960.28
2023-05-18T23:33:22.143Z,960.36
2023-05-18T23:48:24.250Z,960.34
